Time;durP1;ratioP1;P1;durP2;ratioP2;P2;SDS_P1;SDS_P2;PMS_P1;PMS_P2;Temp;Humidity;BMP_temperature;BMP_pressure;BME280_temperature;BME280_humidity;BME280_pressure;Samples;Min_cycle;Max_cycle;Signal;HPM_P1;HPM_P2
2022/09/03 00:01:57;;;;;;;2.57;1.30;;;;;;;;;;4964978;28;20218;-86
2022/09/03 00:05:10;;;;;;;2.20;1.30;;;;;;;;;;4964984;28;20184;-87
2022/09/03 00:08:26;;;;;;;2.83;1.20;;;;;;;;;;4976149;28;20278;-87
2022/09/03 00:11:39;;;;;;;2.03;1.40;;;;;;;;;;4964797;28;20187;-86
2022/09/03 00:14:55;;;;;;;2.00;1.40;;;;;;;;;;4964821;28;20187;-86
2022/09/03 00:18:10;;;;;;;2.23;1.37;;;;;;;;;;4975550;28;20183;-86
2022/09/03 00:21:21;;;;;;;2.13;1.30;;;;;;;;;;4975429;28;20657;-87
2022/09/03 00:24:32;;;;;;;1.90;1.60;;;;;;;;;;4975108;28;20183;-87
2022/09/03 00:27:39;;;;;;;4.53;1.40;;;;;;;;;;4953610;28;20183;-87
2022/09/03 00:30:46;;;;;;;2.10;1.40;;;;;;;;;;4964201;28;20195;-87
2022/09/03 00:33:55;;;;;;;2.43;1.40;;;;;;;;;;4975093;28;20289;-86
2022/09/03 00:36:59;;;;;;;1.47;1.30;;;;;;;;;;4975850;28;20187;-87
2022/09/03 00:40:07;;;;;;;3.00;1.30;;;;;;;;;;4975088;28;20207;-87
2022/09/03 00:43:33;;;;;;;2.80;1.47;;;;;;;;;;4964405;28;20543;-87
2022/09/03 00:47:05;;;;;;;1.53;1.30;;;;;;;;;;4964252;28;20210;-87
2022/09/03 00:50:35;;;;;;;2.77;1.50;;;;;;;;;;4974942;28;20179;-87
2022/09/03 00:53:59;;;;;;;1.47;1.37;;;;;;;;;;4963610;28;20215;-87
2022/09/03 00:57:24;;;;;;;2.00;1.40;;;;;;;;;;4986524;28;20187;-87
2022/09/03 01:00:29;;;;;;;3.03;1.30;;;;;;;;;;4974782;28;20215;-87
2022/09/03 01:03:55;;;;;;;1.70;1.30;;;;;;;;;;4974390;28;20222;-87
2022/09/03 01:07:42;;;;;;;2.07;1.60;;;;;;;;;;4963613;28;20183;-87
2022/09/03 01:11:18;;;;;;;4.13;1.37;;;;;;;;;;4908208;28;20180;-87
2022/09/03 01:14:46;;;;;;;2.60;1.40;;;;;;;;;;4952309;28;20179;-87
2022/09/03 01:18:20;;;;;;;2.03;1.50;;;;;;;;;;4974385;28;20535;-87
2022/09/03 01:21:35;;;;;;;1.30;1.10;;;;;;;;;;4963414;28;20219;-87
2022/09/03 01:25:35;;;;;;;7.30;1.50;;;;;;;;;;4985531;28;20194;-87
2022/09/03 01:28:59;;;;;;;4.17;1.50;;;;;;;;;;4912439;28;20210;-87
2022/09/03 01:32:18;;;;;;;2.63;1.50;;;;;;;;;;4977894;28;20567;-87
2022/09/03 01:35:39;;;;;;;1.30;1.20;;;;;;;;;;4967280;28;20187;-87
2022/09/03 01:38:54;;;;;;;3.63;1.37;;;;;;;;;;4967506;28;20187;-87
2022/09/03 01:42:14;;;;;;;1.60;1.33;;;;;;;;;;4989313;28;20230;-86
2022/09/03 01:45:29;;;;;;;2.37;1.50;;;;;;;;;;4978325;28;20183;-87
2022/09/03 01:49:01;;;;;;;2.90;1.83;;;;;;;;;;4978748;28;20179;-87
2022/09/03 01:52:27;;;;;;;2.33;1.17;;;;;;;;;;4972399;28;20211;-87
2022/09/03 01:55:43;;;;;;;2.47;1.40;;;;;;;;;;4967513;28;20187;-87
2022/09/03 01:59:05;;;;;;;6.07;1.60;;;;;;;;;;4967698;28;20187;-87
2022/09/03 02:02:20;;;;;;;1.70;1.33;;;;;;;;;;4978195;28;20235;-86
2022/09/03 02:05:26;;;;;;;3.47;1.20;;;;;;;;;;4956547;28;20191;-87
2022/09/03 02:08:30;;;;;;;3.10;1.47;;;;;;;;;;4978277;28;20183;-87
2022/09/03 02:11:34;;;;;;;2.70;1.30;;;;;;;;;;4966939;28;20175;-87
2022/09/03 02:14:38;;;;;;;5.67;1.33;;;;;;;;;;4966965;28;20179;-87
2022/09/03 02:17:45;;;;;;;5.60;1.73;;;;;;;;;;4966608;28;20183;-87
2022/09/03 02:20:52;;;;;;;3.53;1.50;;;;;;;;;;4977554;28;20677;-87
2022/09/03 02:23:55;;;;;;;1.90;1.50;;;;;;;;;;4966252;28;20179;-87
2022/09/03 02:27:00;;;;;;;2.50;1.40;;;;;;;;;;4966364;28;20182;-87
2022/09/03 02:30:05;;;;;;;2.37;1.47;;;;;;;;;;4966530;28;20187;-87
2022/09/03 02:33:09;;;;;;;6.60;1.47;;;;;;;;;;4965791;28;20210;-87
2022/09/03 02:36:17;;;;;;;5.73;1.53;;;;;;;;;;4966268;28;20183;-87
2022/09/03 02:39:21;;;;;;;1.63;1.30;;;;;;;;;;4965392;28;20203;-87
2022/09/03 02:42:26;;;;;;;3.90;1.50;;;;;;;;;;4965679;28;20234;-87
2022/09/03 02:45:30;;;;;;;1.70;1.43;;;;;;;;;;4965759;28;20183;-87
2022/09/03 02:48:35;;;;;;;2.43;1.40;;;;;;;;;;4976571;28;20187;-87
2022/09/03 02:51:41;;;;;;;1.80;1.50;;;;;;;;;;4965595;28;20171;-87
2022/09/03 02:54:45;;;;;;;2.37;1.50;;;;;;;;;;4965224;28;20527;-87
2022/09/03 02:57:48;;;;;;;3.33;1.57;;;;;;;;;;4976523;28;20186;-87
2022/09/03 03:00:53;;;;;;;1.80;1.57;;;;;;;;;;4965992;28;20547;-87
2022/09/03 03:03:58;;;;;;;2.30;1.33;;;;;;;;;;5013594;23;20233;-87
2022/09/03 03:07:02;;;;;;;1.77;1.40;;;;;;;;;;5003819;28;20177;-87
2022/09/03 03:10:07;;;;;;;2.23;1.60;;;;;;;;;;4992480;28;20639;-86
2022/09/03 03:13:13;;;;;;;3.47;1.70;;;;;;;;;;4995681;28;20534;-86
2022/09/03 03:16:17;;;;;;;2.40;1.60;;;;;;;;;;4984270;28;20182;-87
2022/09/03 03:19:21;;;;;;;2.03;1.60;;;;;;;;;;4983822;28;20198;-86
2022/09/03 03:22:25;;;;;;;1.40;1.30;;;;;;;;;;4994950;28;20566;-86
2022/09/03 03:25:34;;;;;;;1.93;1.50;;;;;;;;;;4984164;28;20186;-87
2022/09/03 03:28:40;;;;;;;1.97;1.67;;;;;;;;;;4972964;28;20182;-87
2022/09/03 03:31:45;;;;;;;3.73;1.60;;;;;;;;;;4972875;28;20622;-87
2022/09/03 03:34:49;;;;;;;2.90;1.70;;;;;;;;;;4983915;28;20182;-87
2022/09/03 03:37:53;;;;;;;3.03;1.63;;;;;;;;;;4983861;28;20182;-87
2022/09/03 03:40:57;;;;;;;2.37;1.70;;;;;;;;;;4994931;28;20206;-86
2022/09/03 03:44:03;;;;;;;3.80;1.50;;;;;;;;;;4983483;28;20214;-87
2022/09/03 03:47:08;;;;;;;3.10;1.60;;;;;;;;;;4995117;28;20626;-87
2022/09/03 03:50:12;;;;;;;4.17;1.60;;;;;;;;;;4983010;28;20202;-87
2022/09/03 03:53:16;;;;;;;4.17;1.60;;;;;;;;;;4983505;28;20214;-87
2022/09/03 03:56:20;;;;;;;3.40;1.43;;;;;;;;;;4983532;28;20182;-86
2022/09/03 03:59:24;;;;;;;2.53;1.60;;;;;;;;;;4983365;28;20202;-87
2022/09/03 04:02:28;;;;;;;2.03;1.40;;;;;;;;;;4982799;28;20708;-87
2022/09/03 04:05:33;;;;;;;2.17;1.70;;;;;;;;;;4983346;28;20178;-86
2022/09/03 04:08:39;;;;;;;6.73;2.10;;;;;;;;;;4983162;28;20522;-87
2022/09/03 04:11:43;;;;;;;8.93;2.20;;;;;;;;;;4993988;28;20198;-87
2022/09/03 04:14:47;;;;;;;3.70;1.50;;;;;;;;;;4983209;28;20179;-86
2022/09/03 04:17:55;;;;;;;4.43;1.83;;;;;;;;;;4983101;28;20182;-87
2022/09/03 04:21:03;;;;;;;4.27;1.93;;;;;;;;;;4994195;28;20178;-87
2022/09/03 04:24:06;;;;;;;5.67;1.80;;;;;;;;;;4982660;28;20214;-87
2022/09/03 04:27:11;;;;;;;6.27;1.90;;;;;;;;;;4994121;28;20186;-87
2022/09/03 04:30:15;;;;;;;5.50;1.90;;;;;;;;;;4982948;28;20182;-88
2022/09/03 04:33:19;;;;;;;6.37;1.70;;;;;;;;;;4982722;28;20213;-87
2022/09/03 04:36:26;;;;;;;29.53;2.70;;;;;;;;;;4971689;28;20186;-87
2022/09/03 04:39:30;;;;;;;49.03;4.77;;;;;;;;;;4971593;28;20182;-87
2022/09/03 04:42:34;;;;;;;27.13;3.03;;;;;;;;;;4993717;28;20573;-87
2022/09/03 04:45:38;;;;;;;21.50;3.20;;;;;;;;;;4982833;28;20174;-87
2022/09/03 04:48:42;;;;;;;14.90;2.53;;;;;;;;;;4982266;28;20637;-87
2022/09/03 04:51:47;;;;;;;19.03;2.97;;;;;;;;;;4993679;28;20178;-86
2022/09/03 04:54:51;;;;;;;16.43;2.87;;;;;;;;;;4982159;28;20541;-86
2022/09/03 04:57:55;;;;;;;8.40;2.20;;;;;;;;;;4982217;28;20198;-86
2022/09/03 05:01:07;;;;;;;5.37;1.73;;;;;;;;;;4992840;28;20186;-87
2022/09/03 05:04:12;;;;;;;5.73;2.00;;;;;;;;;;4971084;28;20222;-87
2022/09/03 05:07:16;;;;;;;5.50;1.63;;;;;;;;;;4983314;28;20197;-87
2022/09/03 05:10:20;;;;;;;4.43;1.80;;;;;;;;;;4982146;28;20178;-87
2022/09/03 05:13:23;;;;;;;5.47;2.13;;;;;;;;;;4971075;28;20700;-87
2022/09/03 05:16:29;;;;;;;5.67;2.00;;;;;;;;;;4971369;28;20510;-87
2022/09/03 05:19:33;;;;;;;4.63;1.60;;;;;;;;;;4982237;28;20522;-87
2022/09/03 05:22:37;;;;;;;1.83;1.43;;;;;;;;;;4982175;28;20708;-87
2022/09/03 05:25:41;;;;;;;6.77;2.10;;;;;;;;;;4982196;28;20186;-87
2022/09/03 05:28:46;;;;;;;5.83;1.77;;;;;;;;;;4981943;28;20185;-87
2022/09/03 05:31:50;;;;;;;4.27;1.53;;;;;;;;;;4992894;28;20680;-87
2022/09/03 05:34:55;;;;;;;3.63;1.43;;;;;;;;;;4982063;28;20182;-86
2022/09/03 05:37:59;;;;;;;4.10;1.67;;;;;;;;;;4993033;28;20186;-86
2022/09/03 05:41:06;;;;;;;4.00;1.47;;;;;;;;;;4971363;28;20183;-87
2022/09/03 05:44:10;;;;;;;4.20;1.60;;;;;;;;;;4970958;28;20684;-86
2022/09/03 05:47:15;;;;;;;4.93;2.03;;;;;;;;;;4981978;28;20178;-87
2022/09/03 05:50:19;;;;;;;3.30;1.40;;;;;;;;;;4981915;28;20198;-87
2022/09/03 05:53:23;;;;;;;2.13;1.33;;;;;;;;;;4981843;28;20697;-87
2022/09/03 05:56:29;;;;;;;17.47;2.20;;;;;;;;;;4982006;28;20182;-87
2022/09/03 05:59:33;;;;;;;7.00;1.50;;;;;;;;;;4993064;28;20178;-87
2022/09/03 06:02:37;;;;;;;2.77;1.70;;;;;;;;;;4981502;28;20238;-87
2022/09/03 06:05:53;;;;;;;21.10;2.77;;;;;;;;;;4992780;28;20186;-87
2022/09/03 06:09:03;;;;;;;4.23;1.60;;;;;;;;;;4981407;28;20199;-87
2022/09/03 06:12:07;;;;;;;4.53;1.60;;;;;;;;;;4983365;28;20613;-86
2022/09/03 06:15:11;;;;;;;5.17;1.70;;;;;;;;;;4985657;28;20194;-87
2022/09/03 06:18:15;;;;;;;4.73;1.87;;;;;;;;;;4984859;28;20202;-86
2022/09/03 06:21:19;;;;;;;5.83;2.00;;;;;;;;;;4985164;28;20174;-87
2022/09/03 06:24:26;;;;;;;3.67;1.77;;;;;;;;;;4985139;28;20526;-87
2022/09/03 06:27:30;;;;;;;3.43;1.60;;;;;;;;;;4985056;28;20182;-86
2022/09/03 06:30:35;;;;;;;4.63;1.80;;;;;;;;;;4985125;28;20182;-86
2022/09/03 06:33:40;;;;;;;3.00;1.50;;;;;;;;;;4985051;28;20562;-86
2022/09/03 06:36:45;;;;;;;2.53;1.70;;;;;;;;;;4996632;28;20194;-86
2022/09/03 06:39:50;;;;;;;8.43;1.70;;;;;;;;;;4984799;28;20191;-87
2022/09/03 06:42:58;;;;;;;4.73;1.50;;;;;;;;;;4995981;28;20225;-86
2022/09/03 06:46:19;;;;;;;4.20;1.83;;;;;;;;;;4984774;28;20198;-86
2022/09/03 06:49:25;;;;;;;3.07;1.70;;;;;;;;;;4973998;28;20182;-86
2022/09/03 06:52:29;;;;;;;6.47;1.57;;;;;;;;;;4995860;28;20209;-86
2022/09/03 06:55:34;;;;;;;66.70;4.97;;;;;;;;;;4984780;28;20370;-86
2022/09/03 06:58:42;;;;;;;3.07;1.63;;;;;;;;;;4984702;28;20182;-86
2022/09/03 07:01:46;;;;;;;11.53;1.83;;;;;;;;;;4995541;28;20178;-86
2022/09/03 07:04:50;;;;;;;11.87;2.10;;;;;;;;;;4973214;28;20202;-86
2022/09/03 07:07:54;;;;;;;3.20;1.63;;;;;;;;;;4984654;28;20193;-87
2022/09/03 07:11:00;;;;;;;4.80;1.60;;;;;;;;;;4984285;28;20194;-86
2022/09/03 07:14:04;;;;;;;5.73;1.80;;;;;;;;;;4994956;28;20680;-86
2022/09/03 07:17:08;;;;;;;5.23;1.90;;;;;;;;;;4984216;28;20174;-85
2022/09/03 07:20:12;;;;;;;3.47;1.70;;;;;;;;;;4995294;28;20193;-86
2022/09/03 07:23:17;;;;;;;2.17;1.43;;;;;;;;;;4972171;28;20226;-86
2022/09/03 07:26:23;;;;;;;2.80;1.60;;;;;;;;;;4973142;28;20182;-86
2022/09/03 07:29:27;;;;;;;2.13;1.70;;;;;;;;;;4983943;28;20202;-86
2022/09/03 07:32:32;;;;;;;6.33;1.90;;;;;;;;;;4983339;28;20210;-86
2022/09/03 07:35:36;;;;;;;4.53;1.93;;;;;;;;;;4983606;28;20182;-86
2022/09/03 07:38:43;;;;;;;3.07;2.40;;;;;;;;;;4983588;28;20182;-86
2022/09/03 07:41:47;;;;;;;7.00;2.87;;;;;;;;;;4983541;28;20197;-87
2022/09/03 07:44:51;;;;;;;3.33;1.80;;;;;;;;;;4983443;28;20202;-86
2022/09/03 07:47:55;;;;;;;2.30;2.00;;;;;;;;;;4994527;28;20182;-87
2022/09/03 07:51:00;;;;;;;2.73;2.00;;;;;;;;;;4983097;28;20566;-86
2022/09/03 07:54:08;;;;;;;6.63;2.37;;;;;;;;;;4983153;28;20218;-87
2022/09/03 07:57:11;;;;;;;4.47;2.03;;;;;;;;;;4972256;28;20178;-87
2022/09/03 08:00:16;;;;;;;4.90;2.70;;;;;;;;;;4983016;28;20202;-87
2022/09/03 08:03:21;;;;;;;8.40;2.60;;;;;;;;;;4982771;28;20578;-86
2022/09/03 08:06:27;;;;;;;2.47;2.17;;;;;;;;;;4983547;28;20182;-86
2022/09/03 08:09:31;;;;;;;2.87;2.40;;;;;;;;;;4971940;28;20202;-86
2022/09/03 08:12:35;;;;;;;3.50;2.60;;;;;;;;;;4983004;28;20210;-86
2022/09/03 08:15:41;;;;;;;3.23;2.50;;;;;;;;;;4972310;28;20186;-86
2022/09/03 08:18:46;;;;;;;6.60;2.30;;;;;;;;;;4982761;28;20178;-86
2022/09/03 08:21:50;;;;;;;3.00;2.27;;;;;;;;;;4982783;28;20186;-86
2022/09/03 08:24:54;;;;;;;6.27;2.37;;;;;;;;;;4982478;28;20174;-86
2022/09/03 08:27:59;;;;;;;4.80;2.43;;;;;;;;;;4982973;28;20182;-86
2022/09/03 08:31:21;;;;;;;2.33;1.90;;;;;;;;;;4982284;28;20198;-85
2022/09/03 08:34:25;;;;;;;3.43;2.20;;;;;;;;;;4993650;28;20183;-87
2022/09/03 08:37:31;;;;;;;2.77;1.90;;;;;;;;;;4982757;28;20182;-87
2022/09/03 08:40:36;;;;;;;3.77;2.03;;;;;;;;;;4982639;28;20178;-86
2022/09/03 08:44:05;;;;;;;4.70;2.50;;;;;;;;;;4993399;28;20226;-84
2022/09/03 08:47:27;;;;;;;9.93;2.40;;;;;;;;;;4982887;28;20182;-87
2022/09/03 08:50:36;;;;;;;5.20;2.47;;;;;;;;;;4982441;28;20183;-88
2022/09/03 08:53:45;;;;;;;2.97;2.63;;;;;;;;;;4982128;28;20206;-88
2022/09/03 08:56:51;;;;;;;4.70;2.30;;;;;;;;;;4982310;28;20198;-87
2022/09/03 08:59:56;;;;;;;3.77;2.73;;;;;;;;;;4971908;28;20186;-87
2022/09/03 09:03:29;;;;;;;4.53;2.30;;;;;;;;;;4981890;28;20237;-87
2022/09/03 09:06:49;;;;;;;3.20;2.37;;;;;;;;;;4982497;28;20186;-88
2022/09/03 09:10:40;;;;;;;6.87;3.70;;;;;;;;;;4982335;28;20190;-87
2022/09/03 09:13:59;;;;;;;3.07;2.50;;;;;;;;;;4970541;28;20697;-86
2022/09/03 09:17:15;;;;;;;3.00;2.20;;;;;;;;;;4982214;28;20511;-86
2022/09/03 09:20:35;;;;;;;3.37;2.37;;;;;;;;;;4982544;28;20190;-85
2022/09/03 09:23:45;;;;;;;3.10;2.70;;;;;;;;;;4981921;28;20230;-86
2022/09/03 09:26:56;;;;;;;6.10;2.57;;;;;;;;;;4982079;28;20186;-85
2022/09/03 09:30:04;;;;;;;3.43;2.40;;;;;;;;;;5041472;22;20225;-86
2022/09/03 09:33:08;;;;;;;3.93;2.57;;;;;;;;;;4990662;28;20186;-87
2022/09/03 09:36:15;;;;;;;2.63;2.30;;;;;;;;;;4990803;28;20617;-87
2022/09/03 09:39:20;;;;;;;4.27;2.40;;;;;;;;;;4990165;28;20177;-87
2022/09/03 09:42:26;;;;;;;3.13;2.13;;;;;;;;;;4990595;28;20185;-87
2022/09/03 09:45:33;;;;;;;4.33;2.70;;;;;;;;;;4992085;28;20194;-88
2022/09/03 09:48:47;;;;;;;4.50;2.37;;;;;;;;;;5005886;28;20525;-87
2022/09/03 09:52:03;;;;;;;4.60;2.57;;;;;;;;;;5005622;28;20181;-88
2022/09/03 09:55:17;;;;;;;4.87;2.20;;;;;;;;;;5005229;28;20178;-87
2022/09/03 09:58:24;;;;;;;4.83;2.03;;;;;;;;;;5005735;28;20177;-87
2022/09/03 10:01:30;;;;;;;3.27;2.23;;;;;;;;;;5016264;28;20226;-88
2022/09/03 10:04:35;;;;;;;2.80;1.97;;;;;;;;;;5005592;28;20213;-87
2022/09/03 10:07:39;;;;;;;3.37;2.17;;;;;;;;;;5005429;28;20186;-87
2022/09/03 10:10:50;;;;;;;2.90;2.10;;;;;;;;;;4994943;28;20215;-88
2022/09/03 10:13:55;;;;;;;3.10;1.70;;;;;;;;;;4995068;28;20181;-87
2022/09/03 10:17:06;;;;;;;2.63;1.87;;;;;;;;;;5006164;28;20181;-87
2022/09/03 10:20:32;;;;;;;2.33;1.80;;;;;;;;;;4994412;28;20217;-87
2022/09/03 10:23:55;;;;;;;2.60;2.00;;;;;;;;;;5006572;28;20209;-87
2022/09/03 10:27:00;;;;;;;2.77;1.80;;;;;;;;;;4995642;28;20627;-87
2022/09/03 10:30:07;;;;;;;2.30;1.90;;;;;;;;;;4995226;28;20225;-87
2022/09/03 10:33:40;;;;;;;2.23;1.93;;;;;;;;;;4994776;28;20652;-87
2022/09/03 10:37:12;;;;;;;3.37;2.10;;;;;;;;;;5004911;28;20184;-88
2022/09/03 10:40:30;;;;;;;3.40;2.13;;;;;;;;;;5004613;28;20222;-87
2022/09/03 10:44:45;;;;;;;2.40;1.90;;;;;;;;;;5016474;28;20227;-88
2022/09/03 10:48:11;;;;;;;4.70;1.73;;;;;;;;;;5005090;28;20188;-88
2022/09/03 10:52:21;;;;;;;2.23;2.03;;;;;;;;;;5016648;28;20181;-88
2022/09/03 10:55:52;;;;;;;4.30;1.90;;;;;;;;;;5015841;28;20171;-87
2022/09/03 10:59:35;;;;;;;2.17;1.97;;;;;;;;;;5016332;28;20177;-87
2022/09/03 11:03:03;;;;;;;4.37;2.10;;;;;;;;;;4940115;28;20211;-87
2022/09/03 11:06:18;;;;;;;3.10;2.07;;;;;;;;;;5007904;28;20177;-88
2022/09/03 11:09:32;;;;;;;2.30;2.10;;;;;;;;;;5003936;28;20181;-87
2022/09/03 11:12:49;;;;;;;6.57;2.17;;;;;;;;;;4992925;28;20190;-87
2022/09/03 11:16:05;;;;;;;3.07;1.90;;;;;;;;;;4993088;28;20178;-87
2022/09/03 11:19:14;;;;;;;2.10;1.90;;;;;;;;;;4992908;28;20191;-87
2022/09/03 11:22:21;;;;;;;3.00;1.97;;;;;;;;;;5015255;28;20192;-87
2022/09/03 11:25:32;;;;;;;3.87;2.30;;;;;;;;;;5003964;28;20522;-87
2022/09/03 11:29:05;;;;;;;3.90;2.00;;;;;;;;;;5003676;28;20635;-88
2022/09/03 11:32:39;;;;;;;3.47;1.90;;;;;;;;;;4996548;28;20177;-88
2022/09/03 11:35:43;;;;;;;3.10;1.80;;;;;;;;;;4994219;28;20655;-88
2022/09/03 11:38:47;;;;;;;2.30;2.10;;;;;;;;;;4993528;28;20187;-88
2022/09/03 11:42:00;;;;;;;3.97;2.13;;;;;;;;;;4993172;28;20176;-88
2022/09/03 11:45:30;;;;;;;2.33;2.13;;;;;;;;;;5006087;28;20212;-88
2022/09/03 11:48:46;;;;;;;4.67;2.17;;;;;;;;;;4991896;28;20184;-87
2022/09/03 11:51:59;;;;;;;3.43;2.17;;;;;;;;;;4992506;28;20191;-88
2022/09/03 11:55:04;;;;;;;2.47;1.90;;;;;;;;;;4992504;28;20178;-88
2022/09/03 11:58:33;;;;;;;5.80;2.33;;;;;;;;;;4996635;28;20180;-88
2022/09/03 12:01:42;;;;;;;2.17;1.80;;;;;;;;;;5002906;28;20218;-87
2022/09/03 12:05:10;;;;;;;3.43;1.77;;;;;;;;;;5003149;28;20210;-87
2022/09/03 12:08:24;;;;;;;2.33;2.03;;;;;;;;;;4993558;28;20189;-87
2022/09/03 12:11:49;;;;;;;2.73;2.23;;;;;;;;;;4993534;28;20226;-88
2022/09/03 12:15:22;;;;;;;3.90;1.87;;;;;;;;;;4992010;28;20178;-88
2022/09/03 12:18:30;;;;;;;4.03;2.17;;;;;;;;;;5003575;28;20184;-88
2022/09/03 12:21:39;;;;;;;3.13;2.10;;;;;;;;;;4992271;28;20690;-87
2022/09/03 12:24:43;;;;;;;2.77;2.07;;;;;;;;;;4991904;28;20552;-87
2022/09/03 12:27:48;;;;;;;3.10;1.97;;;;;;;;;;4991602;28;20188;-87
2022/09/03 12:30:52;;;;;;;5.70;2.10;;;;;;;;;;4991210;28;20230;-88
2022/09/03 12:34:02;;;;;;;9.10;2.20;;;;;;;;;;4991923;28;20623;-88
2022/09/03 12:37:20;;;;;;;7.13;2.27;;;;;;;;;;5003104;28;20631;-86
2022/09/03 12:40:28;;;;;;;3.27;2.00;;;;;;;;;;4991415;28;20231;-85
2022/09/03 12:43:39;;;;;;;12.13;2.13;;;;;;;;;;4991636;28;20174;-85
2022/09/03 12:46:43;;;;;;;6.63;2.10;;;;;;;;;;5014749;28;20193;-85
2022/09/03 12:49:55;;;;;;;2.63;2.00;;;;;;;;;;4991723;28;20220;-85
2022/09/03 12:53:02;;;;;;;3.70;2.23;;;;;;;;;;4994126;28;20188;-84
2022/09/03 12:56:09;;;;;;;5.20;1.80;;;;;;;;;;5005719;28;20176;-85
2022/09/03 12:59:17;;;;;;;4.17;1.70;;;;;;;;;;4991292;28;20513;-86
2022/09/03 13:02:27;;;;;;;3.00;1.80;;;;;;;;;;4991736;28;20199;-87
2022/09/03 13:05:43;;;;;;;2.10;1.87;;;;;;;;;;5001759;28;20225;-87
2022/09/03 13:08:52;;;;;;;3.20;1.97;;;;;;;;;;4991890;28;20187;-87
2022/09/03 13:11:58;;;;;;;28.65;3.20;;;;;;;;;;5002227;28;20185;-87
2022/09/03 13:15:07;;;;;;;3.15;1.67;;;;;;;;;;5002364;28;20180;-87
2022/09/03 13:18:15;;;;;;;2.13;1.45;;;;;;;;;;5002275;28;20181;-86
2022/09/03 13:21:40;;;;;;;6.30;1.70;;;;;;;;;;5002177;28;20222;-86
2022/09/03 13:24:57;;;;;;;3.70;1.65;;;;;;;;;;5006092;28;20689;-87
2022/09/03 13:28:30;;;;;;;1.75;1.52;;;;;;;;;;4994590;28;20189;-86
2022/09/03 13:31:42;;;;;;;1.83;1.48;;;;;;;;;;4994417;28;20687;-87
2022/09/03 13:34:51;;;;;;;7.90;2.08;;;;;;;;;;4995464;28;20178;-87
2022/09/03 13:38:07;;;;;;;2.10;1.50;;;;;;;;;;5005834;28;20179;-87
2022/09/03 13:41:40;;;;;;;4.70;1.23;;;;;;;;;;4995297;28;20225;-86
2022/09/03 13:44:51;;;;;;;16.48;2.10;;;;;;;;;;5005856;28;20213;-85
2022/09/03 13:51:52;;;;;;;2.72;1.40;;;;;;;;;;5005032;28;20216;-87
2022/09/03 13:55:06;;;;;;;9.55;2.28;;;;;;;;;;5005424;28;20183;-87
2022/09/03 13:58:17;;;;;;;3.20;1.80;;;;;;;;;;4994366;28;20619;-87
2022/09/03 14:01:24;;;;;;;4.25;1.70;;;;;;;;;;5005146;28;20222;-87
2022/09/03 14:04:57;;;;;;;3.63;1.77;;;;;;;;;;5005201;28;20209;-87
2022/09/03 14:08:27;;;;;;;4.28;2.33;;;;;;;;;;5005215;28;20178;-87
2022/09/03 14:11:45;;;;;;;14.07;2.50;;;;;;;;;;5005066;28;20223;-86
2022/09/03 14:14:52;;;;;;;8.80;1.90;;;;;;;;;;4993839;28;20174;-86
2022/09/03 14:18:29;;;;;;;5.53;2.88;;;;;;;;;;5016375;28;20189;-86
2022/09/03 14:21:41;;;;;;;6.65;2.42;;;;;;;;;;4996293;28;20218;-86
2022/09/03 14:24:51;;;;;;;8.07;2.50;;;;;;;;;;4993749;28;20224;-87
2022/09/03 14:28:13;;;;;;;6.00;2.40;;;;;;;;;;5016185;28;20182;-87
2022/09/03 14:31:37;;;;;;;3.13;1.97;;;;;;;;;;5004425;28;20229;-87
2022/09/03 14:35:17;;;;;;;3.23;1.80;;;;;;;;;;4994306;28;20188;-86
2022/09/03 14:38:53;;;;;;;4.57;2.30;;;;;;;;;;5004813;28;20179;-86
2022/09/03 14:42:22;;;;;;;8.40;2.60;;;;;;;;;;4993742;28;20189;-86
2022/09/03 14:45:30;;;;;;;4.80;2.83;;;;;;;;;;4993278;28;20223;-87
2022/09/03 14:48:53;;;;;;;4.80;2.93;;;;;;;;;;5004222;28;20194;-87
2022/09/03 14:52:03;;;;;;;4.70;2.90;;;;;;;;;;5004505;28;20186;-87
2022/09/03 14:55:28;;;;;;;4.30;3.17;;;;;;;;;;4993494;28;20621;-87
2022/09/03 14:58:32;;;;;;;6.37;3.43;;;;;;;;;;4993289;28;20177;-86
2022/09/03 15:01:37;;;;;;;5.83;4.00;;;;;;;;;;5003855;28;20221;-86
2022/09/03 15:05:10;;;;;;;4.67;3.60;;;;;;;;;;4993460;28;20222;-86
2022/09/03 15:08:16;;;;;;;5.37;3.97;;;;;;;;;;5004791;28;20182;-90
2022/09/03 15:11:32;;;;;;;5.50;3.13;;;;;;;;;;5005184;28;20235;-90
2022/09/03 15:14:57;;;;;;;3.53;2.70;;;;;;;;;;4993566;28;20514;-89
2022/09/03 15:18:08;;;;;;;4.00;2.90;;;;;;;;;;4984223;28;20186;-86
2022/09/03 15:21:32;;;;;;;6.50;2.77;;;;;;;;;;4984290;28;20214;-85
2022/09/03 15:24:58;;;;;;;4.30;2.40;;;;;;;;;;4985092;28;20210;-88
2022/09/03 15:28:38;;;;;;;2.10;1.90;;;;;;;;;;4981011;28;20182;-87
2022/09/03 15:32:10;;;;;;;3.63;1.67;;;;;;;;;;4999112;23;20230;-87
2022/09/03 15:35:28;;;;;;;3.73;1.30;;;;;;;;;;4957540;29;20183;-87
2022/09/03 15:39:03;;;;;;;2.07;1.20;;;;;;;;;;4965616;28;20199;-87
2022/09/03 15:42:25;;;;;;;1.57;1.47;;;;;;;;;;4960717;28;20709;-88
2022/09/03 15:45:45;;;;;;;1.80;1.70;;;;;;;;;;4944975;29;20216;-87
2022/09/03 15:48:59;;;;;;;1.43;1.33;;;;;;;;;;4976061;28;20206;-86
2022/09/03 15:52:39;;;;;;;2.40;1.70;;;;;;;;;;4964000;28;20222;-83
2022/09/03 15:55:45;;;;;;;2.17;1.60;;;;;;;;;;4953745;28;20666;-83
2022/09/03 15:58:57;;;;;;;4.43;1.50;;;;;;;;;;4972744;28;20210;-86
2022/09/03 16:02:19;;;;;;;2.47;1.30;;;;;;;;;;4964029;28;20222;-86
2022/09/03 16:05:41;;;;;;;1.23;1.07;;;;;;;;;;4974972;28;20234;-87
2022/09/03 16:08:50;;;;;;;3.70;1.43;;;;;;;;;;4952960;28;20179;-86
2022/09/03 16:12:13;;;;;;;2.10;1.10;;;;;;;;;;4933741;29;20231;-85
2022/09/03 16:15:33;;;;;;;3.20;1.40;;;;;;;;;;4956605;28;20207;-89
2022/09/03 16:18:56;;;;;;;2.17;1.17;;;;;;;;;;4944728;28;20196;-89
2022/09/03 16:22:13;;;;;;;2.10;1.20;;;;;;;;;;4944732;28;20224;-86
2022/09/03 16:25:27;;;;;;;1.63;1.33;;;;;;;;;;4944815;29;20211;-86
2022/09/03 16:28:57;;;;;;;2.10;1.20;;;;;;;;;;4967345;28;20184;-86
2022/09/03 16:32:30;;;;;;;2.47;0.97;;;;;;;;;;4968575;28;20227;-85
2022/09/03 16:35:41;;;;;;;1.47;1.07;;;;;;;;;;4934665;29;20188;-83
2022/09/03 16:38:52;;;;;;;2.57;0.90;;;;;;;;;;4945450;28;20180;-87
2022/09/03 16:42:10;;;;;;;3.47;1.03;;;;;;;;;;4955757;29;20219;-89
2022/09/03 16:45:35;;;;;;;4.67;1.30;;;;;;;;;;4955975;29;20215;-88
2022/09/03 16:48:51;;;;;;;2.57;1.10;;;;;;;;;;4967055;28;20184;-87
2022/09/03 16:52:26;;;;;;;2.90;0.80;;;;;;;;;;4963500;28;20260;-87
2022/09/03 16:55:59;;;;;;;1.03;0.90;;;;;;;;;;4944404;28;20175;-87
2022/09/03 16:59:12;;;;;;;1.83;1.07;;;;;;;;;;4944554;29;20192;-88
2022/09/03 17:02:48;;;;;;;5.23;1.10;;;;;;;;;;4955414;29;20215;-87
2022/09/03 17:06:07;;;;;;;0.97;0.77;;;;;;;;;;4944464;29;20211;-88
2022/09/03 17:09:26;;;;;;;2.70;1.20;;;;;;;;;;4944803;28;20647;-88
2022/09/03 17:12:36;;;;;;;1.83;1.10;;;;;;;;;;4944741;29;20188;-88
2022/09/03 17:16:05;;;;;;;3.13;1.00;;;;;;;;;;4955671;28;20188;-88
2022/09/03 17:19:14;;;;;;;1.40;1.10;;;;;;;;;;4944163;29;20183;-88
2022/09/03 17:22:31;;;;;;;2.83;1.37;;;;;;;;;;4954649;29;20219;-88
2022/09/03 17:25:38;;;;;;;1.50;1.17;;;;;;;;;;4945805;29;20207;-88
2022/09/03 17:29:01;;;;;;;2.40;1.20;;;;;;;;;;4968913;28;20198;-88
2022/09/03 17:32:37;;;;;;;2.13;1.10;;;;;;;;;;4946996;29;20231;-88
2022/09/03 17:35:57;;;;;;;1.90;1.20;;;;;;;;;;4958564;28;20183;-87
2022/09/03 17:39:23;;;;;;;2.83;1.10;;;;;;;;;;4960590;29;20188;-87
2022/09/03 17:42:55;;;;;;;2.47;1.37;;;;;;;;;;4963722;28;20219;-87
2022/09/03 17:46:33;;;;;;;4.33;1.27;;;;;;;;;;4957667;29;20555;-87
2022/09/03 17:49:43;;;;;;;2.93;1.43;;;;;;;;;;4951668;29;20184;-87
2022/09/03 17:52:54;;;;;;;4.13;2.50;;;;;;;;;;4951642;29;20555;-85
2022/09/03 17:56:05;;;;;;;6.67;4.10;;;;;;;;;;4952096;28;20208;-85
2022/09/03 17:59:30;;;;;;;7.00;4.30;;;;;;;;;;4962404;29;20180;-85
2022/09/03 18:02:34;;;;;;;6.30;3.90;;;;;;;;;;4961001;28;20206;-85
2022/09/03 18:05:46;;;;;;;4.63;3.17;;;;;;;;;;4953705;28;20222;-86
2022/09/03 18:09:18;;;;;;;3.23;2.30;;;;;;;;;;4974547;28;20681;-88
2022/09/03 18:12:34;;;;;;;3.90;1.93;;;;;;;;;;4957599;28;20226;-85
2022/09/03 18:15:49;;;;;;;5.13;1.83;;;;;;;;;;4991860;28;20198;-85
2022/09/03 18:19:01;;;;;;;4.30;2.00;;;;;;;;;;4963256;28;20195;-85
2022/09/03 20:13:26;;;;;;;2.70;2.20;;;;;;;;;;4967765;28;20176;-86
2022/09/03 20:16:52;;;;;;;2.50;2.20;;;;;;;;;;4967307;28;20179;-85
2022/09/03 20:20:08;;;;;;;2.40;2.10;;;;;;;;;;4967344;28;20188;-86
2022/09/03 20:23:34;;;;;;;2.17;1.97;;;;;;;;;;4967701;28;20187;-85
2022/09/03 20:26:54;;;;;;;3.23;1.90;;;;;;;;;;4967457;28;20224;-86
2022/09/03 20:30:14;;;;;;;3.70;2.27;;;;;;;;;;4967858;28;20227;-86
2022/09/03 20:33:24;;;;;;;5.30;1.90;;;;;;;;;;4967576;28;20214;-86
2022/09/03 20:36:37;;;;;;;2.80;1.67;;;;;;;;;;4976058;28;20175;-86
2022/09/03 20:40:05;;;;;;;2.83;2.00;;;;;;;;;;4976075;28;20277;-86
2022/09/03 20:43:46;;;;;;;3.20;1.73;;;;;;;;;;4975718;28;20182;-86
2022/09/03 20:46:57;;;;;;;3.40;1.60;;;;;;;;;;4975954;28;20215;-86
2022/09/03 20:50:17;;;;;;;1.93;1.60;;;;;;;;;;4957224;29;20184;-86
2022/09/03 20:54:02;;;;;;;2.03;1.70;;;;;;;;;;4956566;29;20184;-86
2022/09/03 20:57:19;;;;;;;4.63;1.90;;;;;;;;;;4956653;28;20184;-86
2022/09/03 21:00:25;;;;;;;1.60;1.50;;;;;;;;;;4956759;28;20183;-86
2022/09/03 21:03:51;;;;;;;2.37;1.67;;;;;;;;;;4986114;28;20210;-86
2022/09/03 21:07:13;;;;;;;2.30;1.70;;;;;;;;;;4963727;28;20223;-86
2022/09/03 21:10:31;;;;;;;2.50;1.87;;;;;;;;;;4986480;28;20183;-86
2022/09/03 21:13:49;;;;;;;2.67;1.60;;;;;;;;;;4975478;28;20187;-86
2022/09/03 21:17:13;;;;;;;1.97;1.70;;;;;;;;;;4987024;28;20523;-86